Time;durP1;ratioP1;P1;durP2;ratioP2;P2;SDS_P1;SDS_P2;PMS_P1;PMS_P2;Temp;Humidity;BMP_temperature;BMP_pressure;BME280_temperature;BME280_humidity;BME280_pressure;Samples;Min_cycle;Max_cycle;Signal;HPM_P1;HPM_P2
2023/04/20 00:01:30;;;;;;;;;;;13.00;87.90;;;;;;6166765;23;19909;-96
2023/04/20 00:03:56;;;;;;;;;;;13.00;87.90;;;;;;6165656;23;19932;-96
2023/04/20 00:06:24;;;;;;;;;;;13.10;87.70;;;;;;6191460;23;19943;-96
2023/04/20 00:08:49;;;;;;;;;;;13.00;87.80;;;;;;6193230;23;19954;-96
2023/04/20 00:11:15;;;;;;;;;;;13.00;88.00;;;;;;6192625;23;19947;-96
2023/04/20 00:13:41;;;;;;;;;;;12.90;88.10;;;;;;6167192;23;20219;-96
2023/04/20 00:16:07;;;;;;;;;;;12.90;88.10;;;;;;6167905;23;19904;-96
2023/04/20 00:18:32;;;;;;;;;;;12.90;88.30;;;;;;6192686;23;19975;-96
2023/04/20 00:20:58;;;;;;;;;;;12.90;88.70;;;;;;6166139;23;19926;-96
2023/04/20 00:23:24;;;;;;;;;;;12.90;88.90;;;;;;6166406;23;19910;-96
2023/04/20 00:25:51;;;;;;;;;;;12.90;88.80;;;;;;6192503;23;20396;-96
2023/04/20 00:28:16;;;;;;;;;;;12.90;88.60;;;;;;6164851;23;19955;-96
2023/04/20 00:30:42;;;;;;;;;;;12.90;88.70;;;;;;6191990;23;19909;-96
2023/04/20 00:33:07;;;;;;;;;;;12.90;89.10;;;;;;6164609;23;19962;-96
2023/04/20 00:35:33;;;;;;;;;;;12.90;89.50;;;;;;6168114;23;19904;-96
2023/04/20 00:37:59;;;;;;;;;;;12.80;89.50;;;;;;6167273;23;19916;-96
2023/04/20 00:40:24;;;;;;;;;;;12.80;89.10;;;;;;6167452;23;20345;-96
2023/04/20 00:42:50;;;;;;;;;;;12.90;89.00;;;;;;6167620;23;19908;-96
2023/04/20 00:45:16;;;;;;;;;;;12.90;89.30;;;;;;6167375;23;20289;-96
2023/04/20 00:47:41;;;;;;;;;;;12.90;89.50;;;;;;6193528;23;19983;-96
2023/04/20 00:50:07;;;;;;;;;;;12.90;89.50;;;;;;6167216;23;20304;-96
2023/04/20 00:52:33;;;;;;;;;;;12.90;89.40;;;;;;6167289;23;19977;-96
2023/04/20 00:54:59;;;;;;;;;;;12.90;89.30;;;;;;6168060;23;19982;-96
2023/04/20 00:57:25;;;;;;;;;;;12.90;89.40;;;;;;6168130;23;19905;-96
2023/04/20 00:59:51;;;;;;;;;;;12.80;89.10;;;;;;6194508;23;19904;-96
2023/04/20 01:02:19;;;;;;;;;;;12.80;89.10;;;;;;6193779;23;20268;-96
2023/04/20 01:04:46;;;;;;;;;;;12.80;89.00;;;;;;6168137;23;19904;-96
2023/04/20 01:07:11;;;;;;;;;;;12.80;89.10;;;;;;6167791;23;19908;-96
2023/04/20 01:09:38;;;;;;;;;;;12.80;89.40;;;;;;6167961;23;19905;-96
2023/04/20 01:12:04;;;;;;;;;;;12.80;89.60;;;;;;6167326;23;20278;-96
2023/04/20 01:14:30;;;;;;;;;;;12.80;89.90;;;;;;6193741;23;19909;-96
2023/04/20 01:16:55;;;;;;;;;;;12.80;89.80;;;;;;6167693;23;19912;-96
2023/04/20 01:19:21;;;;;;;;;;;12.90;89.30;;;;;;6194139;23;19905;-96
2023/04/20 01:21:47;;;;;;;;;;;12.90;89.00;;;;;;6166111;23;19912;-96
2023/04/20 01:24:13;;;;;;;;;;;12.80;89.40;;;;;;6166291;23;19904;-96
2023/04/20 01:26:38;;;;;;;;;;;12.80;89.70;;;;;;6193018;23;19905;-96
2023/04/20 01:29:04;;;;;;;;;;;12.90;89.40;;;;;;6166051;23;19904;-96
2023/04/20 01:31:30;;;;;;;;;;;12.90;89.50;;;;;;6192506;23;19904;-96
2023/04/20 01:33:56;;;;;;;;;;;12.80;89.30;;;;;;6165681;23;20330;-96
2023/04/20 01:36:21;;;;;;;;;;;12.70;89.50;;;;;;6165357;23;19920;-96
2023/04/20 01:38:48;;;;;;;;;;;12.70;90.00;;;;;;6165732;23;19904;-96
2023/04/20 01:41:13;;;;;;;;;;;12.60;89.70;;;;;;6166467;23;19908;-96
2023/04/20 01:43:39;;;;;;;;;;;12.70;89.30;;;;;;6166968;23;19927;-96
2023/04/20 01:46:05;;;;;;;;;;;12.70;89.10;;;;;;6193653;23;19904;-96
2023/04/20 01:48:31;;;;;;;;;;;12.70;89.10;;;;;;6166745;23;19908;-96
2023/04/20 01:50:56;;;;;;;;;;;12.60;89.10;;;;;;6166642;23;19929;-96
2023/04/20 01:53:24;;;;;;;;;;;12.70;88.90;;;;;;6166701;23;19915;-96
2023/04/20 01:55:50;;;;;;;;;;;12.60;88.80;;;;;;6192519;23;19912;-96
2023/04/20 01:58:15;;;;;;;;;;;12.60;89.00;;;;;;6192262;23;19904;-96
2023/04/20 02:00:41;;;;;;;;;;;12.50;89.80;;;;;;6166106;23;19931;-96
2023/04/20 02:03:07;;;;;;;;;;;12.50;90.10;;;;;;6165817;23;19952;-96
2023/04/20 02:05:33;;;;;;;;;;;12.40;90.00;;;;;;6192851;23;19905;-96
2023/04/20 02:07:59;;;;;;;;;;;12.40;90.50;;;;;;6166137;23;20341;-96
2023/04/20 02:10:24;;;;;;;;;;;12.50;90.20;;;;;;6166254;23;19905;-96
2023/04/20 02:12:50;;;;;;;;;;;12.50;89.90;;;;;;6165859;23;19912;-96
2023/04/20 02:15:16;;;;;;;;;;;12.50;89.80;;;;;;6166843;23;19927;-96
2023/04/20 02:17:42;;;;;;;;;;;12.50;89.80;;;;;;6166800;23;19904;-96
2023/04/20 02:20:09;;;;;;;;;;;12.60;89.60;;;;;;6170366;23;19952;-96
2023/04/20 02:22:35;;;;;;;;;;;12.60;90.00;;;;;;6173766;23;19904;-96
2023/04/20 02:25:02;;;;;;;;;;;12.50;90.60;;;;;;6171500;23;19916;-96
2023/04/20 02:27:27;;;;;;;;;;;12.50;90.70;;;;;;6197574;23;19928;-96
2023/04/20 02:29:53;;;;;;;;;;;12.40;90.50;;;;;;6171434;23;20341;-96
2023/04/20 02:32:19;;;;;;;;;;;12.40;90.10;;;;;;6172152;23;19988;-96
2023/04/20 02:34:45;;;;;;;;;;;12.40;90.10;;;;;;6170753;23;20237;-96
2023/04/20 02:37:10;;;;;;;;;;;12.40;90.60;;;;;;6170996;23;20246;-96
2023/04/20 02:39:36;;;;;;;;;;;12.50;90.40;;;;;;6170439;23;19912;-96
2023/04/20 02:42:02;;;;;;;;;;;12.40;90.00;;;;;;6170716;23;19949;-96
2023/04/20 02:44:27;;;;;;;;;;;12.50;89.70;;;;;;6170526;23;19911;-96
2023/04/20 02:46:53;;;;;;;;;;;12.50;89.40;;;;;;6197893;23;19905;-96
2023/04/20 02:49:19;;;;;;;;;;;12.50;89.20;;;;;;6172854;23;20039;-96
2023/04/20 02:51:45;;;;;;;;;;;12.50;89.10;;;;;;6172539;23;19905;-96
2023/04/20 02:54:10;;;;;;;;;;;12.50;88.70;;;;;;6173190;23;19912;-96
2023/04/20 02:56:36;;;;;;;;;;;12.50;89.00;;;;;;6172959;23;19956;-96
2023/04/20 02:59:02;;;;;;;;;;;12.50;88.70;;;;;;6173364;23;19904;-96
2023/04/20 03:01:28;;;;;;;;;;;12.50;88.10;;;;;;6172065;23;19911;-96
2023/04/20 03:03:54;;;;;;;;;;;12.60;87.80;;;;;;6170082;23;19904;-96
2023/04/20 03:06:20;;;;;;;;;;;12.60;88.00;;;;;;6171170;23;19904;-96
2023/04/20 03:08:46;;;;;;;;;;;12.60;88.50;;;;;;6196590;23;19911;-96
2023/04/20 03:11:11;;;;;;;;;;;12.60;88.20;;;;;;6195685;23;19904;-96
2023/04/20 03:13:37;;;;;;;;;;;12.60;88.20;;;;;;6167776;23;19990;-96
2023/04/20 03:16:04;;;;;;;;;;;12.60;88.40;;;;;;6169102;23;19904;-97
2023/04/20 03:18:30;;;;;;;;;;;12.50;88.50;;;;;;6195725;23;19912;-96
2023/04/20 03:20:55;;;;;;;;;;;12.50;88.90;;;;;;6170463;23;19904;-96
2023/04/20 03:23:21;;;;;;;;;;;12.60;88.70;;;;;;6171217;23;19911;-96
2023/04/20 03:25:47;;;;;;;;;;;12.60;88.40;;;;;;6173088;23;20030;-96
2023/04/20 03:28:14;;;;;;;;;;;12.60;88.80;;;;;;6200942;23;19924;-96
2023/04/20 03:30:40;;;;;;;;;;;12.60;88.60;;;;;;6173836;23;19904;-96
2023/04/20 03:33:06;;;;;;;;;;;12.60;88.50;;;;;;6170182;23;19908;-96
2023/04/20 03:35:32;;;;;;;;;;;12.50;88.90;;;;;;6170178;23;19904;-96
2023/04/20 03:37:57;;;;;;;;;;;12.50;88.80;;;;;;6196249;23;20239;-96
2023/04/20 03:40:23;;;;;;;;;;;12.50;88.90;;;;;;6195632;23;19904;-96
2023/04/20 03:42:49;;;;;;;;;;;12.40;90.00;;;;;;6170529;23;19905;-96
2023/04/20 03:45:15;;;;;;;;;;;12.40;89.90;;;;;;6170194;23;19905;-96
2023/04/20 03:47:40;;;;;;;;;;;12.40;89.80;;;;;;6170728;23;19908;-96
2023/04/20 03:50:06;;;;;;;;;;;12.20;90.00;;;;;;6198202;23;20276;-96
2023/04/20 03:52:32;;;;;;;;;;;12.20;90.30;;;;;;6171524;23;19904;-96
2023/04/20 03:54:58;;;;;;;;;;;12.20;90.30;;;;;;6170974;23;19955;-96
2023/04/20 03:57:24;;;;;;;;;;;12.10;90.50;;;;;;6172205;23;19931;-96
2023/04/20 03:59:49;;;;;;;;;;;12.20;90.90;;;;;;6193751;23;20234;-96
2023/04/20 04:02:15;;;;;;;;;;;12.20;91.40;;;;;;6166891;23;19913;-96
2023/04/20 04:04:41;;;;;;;;;;;12.10;91.40;;;;;;6166107;23;19914;-96
2023/04/20 04:07:07;;;;;;;;;;;12.10;91.30;;;;;;6193951;23;19905;-96
2023/04/20 04:09:32;;;;;;;;;;;12.20;91.20;;;;;;6168143;23;19904;-96
2023/04/20 04:11:58;;;;;;;;;;;12.20;91.40;;;;;;6169561;23;19905;-96
2023/04/20 04:14:24;;;;;;;;;;;12.20;91.30;;;;;;6170892;23;19908;-96
2023/04/20 04:16:50;;;;;;;;;;;12.20;91.10;;;;;;6172993;23;20289;-96
2023/04/20 04:19:19;;;;;;;;;;;12.20;91.10;;;;;;6198549;23;19904;-96
2023/04/20 04:21:44;;;;;;;;;;;12.20;91.40;;;;;;6169779;23;19932;-96
2023/04/20 04:24:10;;;;;;;;;;;12.20;91.60;;;;;;6165753;23;19905;-96
2023/04/20 04:26:36;;;;;;;;;;;12.20;91.50;;;;;;6186754;23;20234;-96
2023/04/20 04:29:03;;;;;;;;;;;12.10;91.90;;;;;;6160145;23;19979;-96
2023/04/20 04:31:30;;;;;;;;;;;12.10;91.90;;;;;;6160899;23;19991;-96
2023/04/20 04:33:56;;;;;;;;;;;12.00;92.20;;;;;;6161013;23;19959;-96
2023/04/20 04:36:23;;;;;;;;;;;11.90;92.60;;;;;;6187555;23;19916;-96
2023/04/20 04:38:48;;;;;;;;;;;11.90;92.70;;;;;;6187775;23;19912;-96
2023/04/20 04:41:14;;;;;;;;;;;11.90;92.80;;;;;;6161286;23;19905;-96
2023/04/20 04:43:40;;;;;;;;;;;11.90;92.50;;;;;;6161026;23;19911;-96
2023/04/20 04:46:08;;;;;;;;;;;11.80;92.40;;;;;;6161366;23;19995;-96
2023/04/20 04:48:34;;;;;;;;;;;11.80;92.90;;;;;;6161386;23;19939;-96
2023/04/20 04:51:00;;;;;;;;;;;11.90;92.60;;;;;;6161657;23;19958;-96
2023/04/20 04:53:26;;;;;;;;;;;11.80;92.60;;;;;;6161964;23;19912;-96
2023/04/20 04:55:51;;;;;;;;;;;11.90;92.60;;;;;;6162558;23;19908;-96
2023/04/20 04:58:17;;;;;;;;;;;11.90;92.40;;;;;;6162476;23;19939;-96
2023/04/20 05:00:43;;;;;;;;;;;11.90;92.30;;;;;;6163772;23;19974;-96
2023/04/20 05:03:08;;;;;;;;;;;12.00;92.30;;;;;;6162553;23;19908;-96
2023/04/20 05:05:34;;;;;;;;;;;12.10;92.10;;;;;;6189709;23;19932;-96
2023/04/20 05:07:59;;;;;;;;;;;12.10;91.80;;;;;;6162993;23;20318;-96
2023/04/20 05:10:25;;;;;;;;;;;12.20;91.40;;;;;;6189655;23;19911;-96
2023/04/20 05:12:51;;;;;;;;;;;12.20;91.10;;;;;;6163320;23;19970;-96
2023/04/20 05:15:17;;;;;;;;;;;12.20;90.90;;;;;;6163512;23;19905;-96
2023/04/20 05:17:43;;;;;;;;;;;12.20;90.80;;;;;;6163679;23;19911;-96
2023/04/20 05:20:10;;;;;;;;;;;12.30;90.60;;;;;;6163688;23;19955;-96
2023/04/20 05:22:36;;;;;;;;;;;12.30;90.90;;;;;;6168695;23;19909;-96
2023/04/20 05:25:02;;;;;;;;;;;12.30;90.70;;;;;;6167836;23;19915;-96
2023/04/20 05:27:27;;;;;;;;;;;12.30;90.70;;;;;;6193196;23;20014;-96
2023/04/20 05:29:53;;;;;;;;;;;12.30;90.60;;;;;;6166857;23;19904;-96
2023/04/20 05:32:18;;;;;;;;;;;12.40;90.20;;;;;;6164945;23;20215;-96
2023/04/20 05:34:44;;;;;;;;;;;12.40;90.00;;;;;;6164447;23;19994;-96
2023/04/20 05:37:10;;;;;;;;;;;12.40;89.80;;;;;;6143338;23;20358;-96
2023/04/20 05:39:36;;;;;;;;;;;12.40;89.80;;;;;;6160151;23;19905;-96
2023/04/20 05:42:02;;;;;;;;;;;12.40;89.70;;;;;;6164168;23;19905;-96
2023/04/20 05:44:27;;;;;;;;;;;12.50;89.50;;;;;;6164362;23;19904;-96
2023/04/20 05:46:53;;;;;;;;;;;12.60;89.30;;;;;;6163750;23;20031;-96
2023/04/20 05:49:19;;;;;;;;;;;12.60;89.10;;;;;;6158493;23;19928;-96
2023/04/20 05:51:45;;;;;;;;;;;12.70;88.90;;;;;;6161166;23;19904;-96
2023/04/20 05:54:11;;;;;;;;;;;12.70;88.90;;;;;;6159826;23;19998;-96
2023/04/20 05:56:36;;;;;;;;;;;12.90;88.90;;;;;;6158264;23;19904;-95
2023/04/20 05:59:02;;;;;;;;;;;12.90;88.90;;;;;;6159934;23;19904;-96
2023/04/20 06:01:27;;;;;;;;;;;12.90;88.90;;;;;;6158184;23;19904;-96
2023/04/20 06:03:53;;;;;;;;;;;13.00;88.60;;;;;;6158545;23;19908;-96
2023/04/20 06:06:19;;;;;;;;;;;13.10;88.50;;;;;;6132716;23;19904;-96
2023/04/20 06:08:44;;;;;;;;;;;13.10;88.20;;;;;;6157074;23;19905;-96
2023/04/20 06:11:10;;;;;;;;;;;13.20;88.00;;;;;;6157934;23;19904;-96
2023/04/20 06:13:35;;;;;;;;;;;13.30;87.60;;;;;;6157307;23;19916;-96
2023/04/20 06:16:01;;;;;;;;;;;13.40;87.20;;;;;;6134043;23;19933;-96
2023/04/20 06:18:27;;;;;;;;;;;13.30;87.00;;;;;;6157025;23;20234;-96
2023/04/20 06:20:53;;;;;;;;;;;13.40;87.00;;;;;;6161473;23;20378;-96
2023/04/20 06:23:19;;;;;;;;;;;13.40;87.20;;;;;;6134720;23;19920;-96
2023/04/20 06:25:45;;;;;;;;;;;13.50;87.20;;;;;;6159915;23;19908;-96
2023/04/20 06:28:10;;;;;;;;;;;13.60;87.20;;;;;;6164831;23;19912;-96
2023/04/20 06:30:36;;;;;;;;;;;13.60;86.60;;;;;;6162775;23;19979;-96
2023/04/20 06:33:02;;;;;;;;;;;13.60;86.50;;;;;;6131404;23;19916;-96
2023/04/20 06:35:28;;;;;;;;;;;13.60;86.00;;;;;;6106546;23;20338;-96
2023/04/20 06:37:56;;;;;;;;;;;13.60;85.60;;;;;;6133634;23;19928;-96
2023/04/20 06:40:22;;;;;;;;;;;13.50;85.80;;;;;;6108955;23;19920;-96
2023/04/20 06:42:47;;;;;;;;;;;13.50;85.70;;;;;;6107143;23;19905;-96
2023/04/20 06:45:13;;;;;;;;;;;13.40;86.10;;;;;;6105614;23;20350;-96
2023/04/20 06:47:39;;;;;;;;;;;13.40;86.10;;;;;;6108594;23;19912;-96
2023/04/20 06:50:08;;;;;;;;;;;13.40;86.10;;;;;;6111561;23;19905;-96
2023/04/20 06:52:35;;;;;;;;;;;13.40;86.10;;;;;;6107663;23;19951;-96
2023/04/20 06:55:04;;;;;;;;;;;13.50;86.60;;;;;;6108970;23;19905;-96
2023/04/20 06:57:30;;;;;;;;;;;13.60;86.30;;;;;;6114749;23;19905;-96
2023/04/20 06:59:57;;;;;;;;;;;13.70;86.10;;;;;;6134629;23;19974;-96
2023/04/20 07:02:23;;;;;;;;;;;13.70;85.30;;;;;;6111585;23;19905;-96
2023/04/20 07:04:49;;;;;;;;;;;13.80;85.50;;;;;;6115013;23;19956;-96
2023/04/20 07:07:14;;;;;;;;;;;13.90;84.40;;;;;;6109805;23;19912;-96
2023/04/20 07:09:40;;;;;;;;;;;13.90;83.70;;;;;;6116452;23;19905;-96
2023/04/20 07:12:07;;;;;;;;;;;13.90;83.50;;;;;;6145347;23;19935;-96
2023/04/20 07:14:32;;;;;;;;;;;13.90;83.70;;;;;;6112006;23;19913;-96
2023/04/20 07:16:58;;;;;;;;;;;13.90;83.80;;;;;;6109271;23;19995;-96
2023/04/20 07:19:24;;;;;;;;;;;13.90;84.10;;;;;;6110976;23;20003;-96
2023/04/20 07:21:50;;;;;;;;;;;14.00;83.90;;;;;;6109586;23;19909;-96
2023/04/20 07:24:15;;;;;;;;;;;14.10;83.10;;;;;;6137136;23;19905;-96
2023/04/20 07:26:44;;;;;;;;;;;14.10;83.10;;;;;;6114120;23;19928;-96
2023/04/20 07:29:10;;;;;;;;;;;14.10;83.30;;;;;;6117095;23;19913;-96
2023/04/20 07:31:36;;;;;;;;;;;14.20;82.90;;;;;;6117492;23;19912;-96
2023/04/20 07:34:02;;;;;;;;;;;14.30;82.60;;;;;;6114909;23;19909;-96
2023/04/20 07:36:28;;;;;;;;;;;14.30;82.30;;;;;;6108706;23;20347;-96
2023/04/20 07:38:56;;;;;;;;;;;14.20;83.00;;;;;;6132677;23;19915;-96
2023/04/20 07:41:22;;;;;;;;;;;14.20;82.90;;;;;;6111397;23;19905;-96
2023/04/20 07:43:48;;;;;;;;;;;14.30;82.90;;;;;;6113679;23;20027;-96
2023/04/20 07:46:20;;;;;;;;;;;14.30;82.60;;;;;;6105257;23;19916;-96
2023/04/20 07:48:46;;;;;;;;;;;14.30;81.50;;;;;;6108337;23;20382;-96
2023/04/20 07:51:11;;;;;;;;;;;14.40;81.70;;;;;;6110583;23;19905;-96
2023/04/20 07:53:37;;;;;;;;;;;14.50;81.90;;;;;;6136578;23;19936;-96
2023/04/20 07:56:03;;;;;;;;;;;14.50;81.20;;;;;;6103623;23;19909;-96
2023/04/20 07:58:29;;;;;;;;;;;14.50;81.00;;;;;;6108366;23;19992;-96
2023/04/20 08:00:55;;;;;;;;;;;14.60;80.70;;;;;;6135313;23;20349;-96
2023/04/20 08:03:20;;;;;;;;;;;14.60;80.70;;;;;;6106899;23;19911;-96
2023/04/20 08:16:17;;;;;;;;;;;15.10;79.30;;;;;;6159660;23;19971;-96
2023/04/20 08:18:43;;;;;;;;;;;15.20;79.80;;;;;;6159936;23;19983;-96
2023/04/20 08:21:08;;;;;;;;;;;15.30;80.00;;;;;;6159497;23;19905;-96
2023/04/20 08:23:34;;;;;;;;;;;15.40;79.60;;;;;;6134561;23;19911;-96
2023/04/20 08:26:14;;;;;;;;;;;15.60;78.40;;;;;;6182338;23;19904;-97
2023/04/20 08:28:43;;;;;;;;;;;15.50;78.50;;;;;;6151534;23;19990;-96
2023/04/20 08:31:13;;;;;;;;;;;15.50;77.00;;;;;;6156949;23;19908;-96
2023/04/20 08:33:41;;;;;;;;;;;15.70;76.60;;;;;;6156547;23;19948;-96
2023/04/20 08:36:13;;;;;;;;;;;15.50;76.70;;;;;;6133699;23;19897;-96
2023/04/20 08:46:33;;;;;;;;;;;15.30;78.10;;;;;;6172276;23;19934;-96
2023/04/20 08:49:15;;;;;;;;;;;15.10;78.70;;;;;;6152899;23;19917;-96
2023/04/20 08:51:50;;;;;;;;;;;15.20;78.20;;;;;;6151226;23;19912;-96
2023/04/20 08:54:24;;;;;;;;;;;15.10;78.40;;;;;;6150643;23;19913;-96
2023/04/20 08:56:52;;;;;;;;;;;15.10;78.70;;;;;;6149582;23;19912;-96
2023/04/20 08:59:26;;;;;;;;;;;15.10;79.00;;;;;;6152215;23;19905;-96
2023/04/20 09:01:55;;;;;;;;;;;15.10;79.20;;;;;;6152422;23;19959;-96
2023/04/20 09:04:27;;;;;;;;;;;15.20;79.00;;;;;;6151245;23;19912;-96
2023/04/20 09:22:57;;;;;;;;;;;15.30;78.50;;;;;;6164639;23;19968;-96
2023/04/20 09:25:36;;;;;;;;;;;15.30;78.70;;;;;;6183005;23;19996;-96
2023/04/20 09:28:10;;;;;;;;;;;15.20;78.90;;;;;;6159233;23;19892;-96
2023/04/20 09:39:02;;;;;;;;;;;15.60;77.30;;;;;;6180885;23;19921;-96
2023/04/20 09:44:48;;;;;;;;;;;15.80;76.10;;;;;;6166080;23;19928;-96
2023/04/20 09:58:38;;;;;;;;;;;16.20;74.60;;;;;;6175539;23;19920;-96
2023/04/20 10:01:11;;;;;;;;;;;16.20;75.80;;;;;;6159620;23;19896;-96
2023/04/20 10:03:42;;;;;;;;;;;16.10;75.30;;;;;;6159104;23;19889;-96
2023/04/20 10:06:21;;;;;;;;;;;16.10;75.20;;;;;;6159853;23;19909;-96
2023/04/20 10:09:01;;;;;;;;;;;16.00;74.80;;;;;;6159400;23;19905;-96
2023/04/20 10:11:45;;;;;;;;;;;16.10;75.20;;;;;;6158069;23;19905;-96
2023/04/20 10:14:22;;;;;;;;;;;16.10;75.90;;;;;;6159181;23;19908;-96
2023/04/20 10:17:08;;;;;;;;;;;16.00;74.90;;;;;;6158432;23;19908;-96
2023/04/20 10:19:38;;;;;;;;;;;16.00;75.80;;;;;;6159016;23;19928;-96
2023/04/20 10:22:32;;;;;;;;;;;15.80;75.30;;;;;;6158615;23;19912;-96
2023/04/20 10:25:16;;;;;;;;;;;15.80;76.10;;;;;;6158135;23;19929;-96
2023/04/20 10:28:09;;;;;;;;;;;15.70;76.10;;;;;;6185316;23;19909;-96
2023/04/20 10:31:06;;;;;;;;;;;15.60;77.10;;;;;;6183691;23;19911;-96
2023/04/20 10:33:36;;;;;;;;;;;15.60;76.60;;;;;;6175511;23;19945;-96
2023/04/20 10:36:12;;;;;;;;;;;15.40;78.10;;;;;;6158898;23;19920;-96
2023/04/20 10:38:46;;;;;;;;;;;15.20;78.30;;;;;;6157390;23;19917;-96
2023/04/20 10:41:20;;;;;;;;;;;15.10;79.00;;;;;;6184128;23;19913;-96
2023/04/20 10:43:55;;;;;;;;;;;14.90;79.40;;;;;;6159980;23;19892;-96
2023/04/20 10:46:23;;;;;;;;;;;14.90;80.70;;;;;;6158965;23;19893;-96
2023/04/20 10:49:03;;;;;;;;;;;14.80;80.80;;;;;;6158825;23;19909;-96
2023/04/20 10:51:31;;;;;;;;;;;14.80;80.90;;;;;;6150063;23;19925;-96
2023/04/20 10:54:05;;;;;;;;;;;14.70;81.30;;;;;;6184060;23;19928;-96
2023/04/20 10:56:46;;;;;;;;;;;14.60;82.80;;;;;;6154322;23;19889;-96
2023/04/20 10:59:37;;;;;;;;;;;14.50;81.80;;;;;;6150247;23;19905;-96
2023/04/20 11:02:13;;;;;;;;;;;14.40;82.90;;;;;;6128948;23;19944;-96
2023/04/20 11:05:11;;;;;;;;;;;;;;;;;;;;;
2023/04/20 11:07:46;;;;;;;;;;;14.10;83.30;;;;;;6154684;23;19905;-96
2023/04/20 11:10:22;;;;;;;;;;;14.10;83.80;;;;;;6153377;23;19896;-96
2023/04/20 11:12:54;;;;;;;;;;;13.90;83.40;;;;;;6154052;23;19905;-96
2023/04/20 11:15:46;;;;;;;;;;;13.90;84.40;;;;;;6105908;23;19916;-96
2023/04/20 11:18:19;;;;;;;;;;;13.90;84.60;;;;;;6151895;23;19909;-96
2023/04/20 11:20:56;;;;;;;;;;;13.90;84.60;;;;;;6153493;23;19909;-96
2023/04/20 11:23:37;;;;;;;;;;;14.00;85.10;;;;;;6123702;23;19909;-96
2023/04/20 11:26:19;;;;;;;;;;;13.90;84.70;;;;;;6097984;23;19988;-96
2023/04/20 11:36:41;;;;;;;;;;;14.40;85.50;;;;;;6181654;23;19943;-96
2023/04/20 11:39:17;;;;;;;;;;;14.40;84.70;;;;;;6158242;23;19948;-96
2023/04/20 11:41:52;;;;;;;;;;;14.60;86.00;;;;;;6158419;23;19900;-96
2023/04/20 11:44:20;;;;;;;;;;;14.60;85.10;;;;;;6137455;23;19983;-96
2023/04/20 11:46:48;;;;;;;;;;;14.60;84.80;;;;;;6164661;23;19911;-96
2023/04/20 11:49:14;;;;;;;;;;;14.50;85.30;;;;;;6164037;23;19905;-95
2023/04/20 11:51:40;;;;;;;;;;;14.50;85.10;;;;;;6135519;23;19928;-96
2023/04/20 11:54:06;;;;;;;;;;;14.50;84.90;;;;;;6138206;23;20286;-96
2023/04/20 11:56:32;;;;;;;;;;;14.40;84.40;;;;;;6139593;23;19976;-96
2023/04/20 11:58:57;;;;;;;;;;;14.30;84.60;;;;;;6141348;23;19915;-94
2023/04/20 12:01:23;;;;;;;;;;;14.40;85.50;;;;;;6139096;23;19929;-93
2023/04/20 12:03:49;;;;;;;;;;;14.40;85.60;;;;;;6134423;23;19905;-93
2023/04/20 12:06:14;;;;;;;;;;;14.40;85.10;;;;;;6134814;23;19904;-94
2023/04/20 12:08:41;;;;;;;;;;;14.30;84.30;;;;;;6160922;23;20314;-93
2023/04/20 12:11:07;;;;;;;;;;;14.30;85.40;;;;;;6135551;23;19912;-93
2023/04/20 12:13:33;;;;;;;;;;;14.10;84.90;;;;;;6135460;23;19909;-93
2023/04/20 12:15:58;;;;;;;;;;;14.10;85.10;;;;;;6160778;23;19927;-93
2023/04/20 12:18:24;;;;;;;;;;;14.10;84.60;;;;;;6162388;23;20299;-93
2023/04/20 12:20:50;;;;;;;;;;;14.10;84.40;;;;;;6163195;23;20242;-94
2023/04/20 12:23:15;;;;;;;;;;;14.10;84.80;;;;;;6137707;23;20315;-93
2023/04/20 12:25:42;;;;;;;;;;;14.10;84.30;;;;;;6141201;23;19911;-95
2023/04/20 12:28:07;;;;;;;;;;;14.00;84.20;;;;;;6139530;23;19905;-93
2023/04/20 12:30:34;;;;;;;;;;;14.00;84.70;;;;;;6140430;23;19904;-94
2023/04/20 12:33:00;;;;;;;;;;;14.00;84.40;;;;;;6162224;23;19908;-94
2023/04/20 12:35:26;;;;;;;;;;;14.00;84.60;;;;;;6135391;23;20242;-93
2023/04/20 12:37:51;;;;;;;;;;;13.90;84.60;;;;;;6137138;23;19980;-92
2023/04/20 12:40:17;;;;;;;;;;;13.90;84.80;;;;;;6135016;23;19912;-96
2023/04/20 12:42:42;;;;;;;;;;;13.90;84.90;;;;;;6156951;23;19911;-96
2023/04/20 12:45:08;;;;;;;;;;;13.90;85.00;;;;;;6158226;23;19916;-95
2023/04/20 12:47:34;;;;;;;;;;;13.80;84.10;;;;;;6130892;23;19942;-96
2023/04/20 12:49:59;;;;;;;;;;;13.80;84.50;;;;;;6157757;23;19911;-96
2023/04/20 12:52:25;;;;;;;;;;;13.70;84.70;;;;;;6132566;23;19912;-96
2023/04/20 12:54:51;;;;;;;;;;;13.70;84.70;;;;;;6137255;23;19915;-96
2023/04/20 12:57:17;;;;;;;;;;;13.70;84.70;;;;;;6139262;23;19911;-95
2023/04/20 12:59:42;;;;;;;;;;;13.60;85.30;;;;;;6145143;23;19905;-96
2023/04/20 13:02:08;;;;;;;;;;;13.60;85.40;;;;;;6166881;23;19908;-94
2023/04/20 13:04:35;;;;;;;;;;;13.60;85.50;;;;;;6145739;23;19905;-94
2023/04/20 13:07:00;;;;;;;;;;;13.60;85.60;;;;;;6172752;23;19911;-96
2023/04/20 13:09:26;;;;;;;;;;;13.60;85.30;;;;;;6145265;23;19905;-95
2023/04/20 13:11:52;;;;;;;;;;;13.60;85.60;;;;;;6174420;23;19904;-94
2023/04/20 13:14:18;;;;;;;;;;;13.50;85.90;;;;;;6143697;23;19935;-94
2023/04/20 13:16:44;;;;;;;;;;;13.50;85.90;;;;;;6142497;23;19927;-93
2023/04/20 13:19:09;;;;;;;;;;;13.40;85.60;;;;;;6167774;23;19905;-94
2023/04/20 13:21:35;;;;;;;;;;;13.40;86.50;;;;;;6136283;23;20212;-94
2023/04/20 13:24:00;;;;;;;;;;;13.30;86.90;;;;;;6163639;23;19911;-94
2023/04/20 13:26:26;;;;;;;;;;;13.30;87.70;;;;;;6163191;23;19911;-94
2023/04/20 13:28:53;;;;;;;;;;;13.30;87.80;;;;;;6137538;23;19911;-94
2023/04/20 13:31:18;;;;;;;;;;;13.30;86.50;;;;;;6137290;23;19915;-93
2023/04/20 13:33:44;;;;;;;;;;;13.30;87.60;;;;;;6140604;23;19908;-94
2023/04/20 13:36:10;;;;;;;;;;;13.20;87.80;;;;;;6166459;23;19997;-94
2023/04/20 13:38:35;;;;;;;;;;;13.30;87.70;;;;;;6140331;23;19904;-94
2023/04/20 13:41:01;;;;;;;;;;;13.40;87.90;;;;;;6158596;23;19909;-95
2023/04/20 13:43:26;;;;;;;;;;;13.60;87.80;;;;;;6131850;23;19912;-96
2023/04/20 13:45:52;;;;;;;;;;;13.80;87.90;;;;;;6158268;23;19911;-96
2023/04/20 13:48:17;;;;;;;;;;;13.90;86.70;;;;;;6132406;23;20349;-96
2023/04/20 13:50:43;;;;;;;;;;;14.10;86.10;;;;;;6163114;23;19992;-95
2023/04/20 13:53:09;;;;;;;;;;;14.20;86.60;;;;;;6168087;23;19913;-93
2023/04/20 13:55:34;;;;;;;;;;;14.10;86.00;;;;;;6171105;23;20282;-96
2023/04/20 13:58:00;;;;;;;;;;;14.10;86.10;;;;;;6161584;23;19908;-96
2023/04/20 14:00:26;;;;;;;;;;;14.10;85.70;;;;;;6158711;23;19905;-95
2023/04/20 14:02:51;;;;;;;;;;;14.10;85.70;;;;;;6131766;23;19904;-95
2023/04/20 14:05:17;;;;;;;;;;;13.90;85.90;;;;;;6157882;23;19927;-96
2023/04/20 14:07:42;;;;;;;;;;;13.80;85.30;;;;;;6157902;23;19911;-95
2023/04/20 14:10:08;;;;;;;;;;;13.70;85.90;;;;;;6157858;23;19909;-95
2023/04/20 14:12:34;;;;;;;;;;;13.50;86.30;;;;;;6158084;23;19947;-95
2023/04/20 14:14:59;;;;;;;;;;;13.60;86.80;;;;;;6157661;23;19951;-95
2023/04/20 14:17:25;;;;;;;;;;;13.50;86.70;;;;;;6157990;23;19904;-95
2023/04/20 14:19:51;;;;;;;;;;;13.40;86.70;;;;;;6158425;23;19913;-95
2023/04/20 14:22:16;;;;;;;;;;;13.40;87.20;;;;;;6157602;23;19911;-94
2023/04/20 14:24:44;;;;;;;;;;;13.40;87.30;;;;;;6157541;23;19905;-95
2023/04/20 14:27:10;;;;;;;;;;;13.40;87.60;;;;;;6131645;23;19905;-95
2023/04/20 14:29:35;;;;;;;;;;;13.30;87.50;;;;;;6157854;23;19935;-96
2023/04/20 14:32:01;;;;;;;;;;;13.40;88.00;;;;;;6138142;23;20370;-96
2023/04/20 14:34:27;;;;;;;;;;;13.30;87.80;;;;;;6137313;23;19931;-96
2023/04/20 14:36:53;;;;;;;;;;;13.40;87.80;;;;;;6134663;23;19917;-96
2023/04/20 14:39:19;;;;;;;;;;;13.40;87.00;;;;;;6131390;23;20386;-96
2023/04/20 14:41:45;;;;;;;;;;;13.40;87.10;;;;;;6134684;23;19928;-96
2023/04/20 14:44:10;;;;;;;;;;;13.40;87.40;;;;;;6132842;23;19908;-96
2023/04/20 14:46:38;;;;;;;;;;;13.40;87.50;;;;;;6133419;23;19929;-96
2023/04/20 14:49:04;;;;;;;;;;;13.40;87.40;;;;;;6133032;23;19912;-96
2023/04/20 14:51:29;;;;;;;;;;;13.40;87.40;;;;;;6133467;23;19905;-96
2023/04/20 14:53:55;;;;;;;;;;;13.30;86.80;;;;;;6132794;23;19923;-96
2023/04/20 14:56:21;;;;;;;;;;;13.30;87.60;;;;;;6134007;23;19905;-96
2023/04/20 14:58:46;;;;;;;;;;;13.30;87.40;;;;;;6133143;23;19956;-96
2023/04/20 15:01:13;;;;;;;;;;;13.20;87.80;;;;;;6131736;23;19968;-96
2023/04/20 15:03:39;;;;;;;;;;;13.20;87.90;;;;;;6129417;23;19909;-96
2023/04/20 15:06:05;;;;;;;;;;;13.20;87.80;;;;;;6129178;23;19912;-96
2023/04/20 15:08:30;;;;;;;;;;;13.30;87.80;;;;;;6132775;23;19905;-96
2023/04/20 15:10:56;;;;;;;;;;;13.40;87.30;;;;;;6138717;23;19905;-96
2023/04/20 15:13:22;;;;;;;;;;;13.50;87.60;;;;;;6137118;23;19932;-96
2023/04/20 15:15:48;;;;;;;;;;;13.60;86.90;;;;;;6137465;23;19909;-96
2023/04/20 15:18:14;;;;;;;;;;;13.70;86.80;;;;;;6136494;23;19980;-96
2023/04/20 15:20:40;;;;;;;;;;;13.70;86.60;;;;;;6139188;23;19912;-96
2023/04/20 15:23:09;;;;;;;;;;;13.70;86.10;;;;;;6143953;23;19889;-96
2023/04/20 15:25:37;;;;;;;;;;;13.60;86.10;;;;;;6146394;23;19912;-96